Time;durP1;ratioP1;P1;durP2;ratioP2;P2;SDS_P1;SDS_P2;PMS_P1;PMS_P2;Temp;Humidity;BMP_temperature;BMP_pressure;BME280_temperature;BME280_humidity;BME280_pressure;Samples;Min_cycle;Max_cycle;Signal;HPM_P1;HPM_P2
2021/07/16 00:00:58;;;;;;;;;;;15.80;99.90;;;;;;5073442;28;19962;-67
2021/07/16 00:03:25;;;;;;;;;;;15.90;99.90;;;;;;5073563;28;19912;-67
2021/07/16 00:05:52;;;;;;;;;;;15.90;99.90;;;;;;5072986;28;19914;-67
2021/07/16 00:08:18;;;;;;;;;;;15.80;99.90;;;;;;5073258;28;19909;-67
2021/07/16 00:10:46;;;;;;;;;;;15.80;99.90;;;;;;5073433;28;19912;-67
2021/07/16 00:13:17;;;;;;;;;;;16.10;99.90;;;;;;5104978;28;19923;-67
2021/07/16 00:15:44;;;;;;;;;;;16.10;99.90;;;;;;5073492;28;19915;-67
2021/07/16 00:18:10;;;;;;;;;;;16.10;99.90;;;;;;5073577;28;20393;-66
2021/07/16 00:20:37;;;;;;;;;;;16.00;99.90;;;;;;5072905;28;19909;-67
2021/07/16 00:23:04;;;;;;;;;;;16.10;99.90;;;;;;5073096;28;20001;-66
2021/07/16 00:25:30;;;;;;;;;;;16.10;99.90;;;;;;5072651;28;19912;-66
2021/07/16 00:27:57;;;;;;;;;;;16.10;99.90;;;;;;5073471;28;19908;-66
2021/07/16 00:30:24;;;;;;;;;;;16.30;99.90;;;;;;5072530;28;19908;-66
2021/07/16 00:32:50;;;;;;;;;;;16.30;99.90;;;;;;5073058;28;19952;-66
2021/07/16 00:35:17;;;;;;;;;;;16.40;99.90;;;;;;5072388;28;20030;-67
2021/07/16 00:37:44;;;;;;;;;;;16.40;99.90;;;;;;5072652;28;20319;-66
2021/07/16 00:40:11;;;;;;;;;;;16.50;99.90;;;;;;5072693;28;20259;-66
2021/07/16 00:42:38;;;;;;;;;;;16.40;99.90;;;;;;5072661;28;19912;-66
2021/07/16 00:45:06;;;;;;;;;;;16.30;99.90;;;;;;5072800;28;19974;-66
2021/07/16 00:47:33;;;;;;;;;;;16.30;99.90;;;;;;5072246;28;19939;-66
2021/07/16 00:49:59;;;;;;;;;;;16.40;99.90;;;;;;5072417;28;20346;-66
2021/07/16 00:52:26;;;;;;;;;;;16.60;99.90;;;;;;5071947;28;20330;-66
2021/07/16 00:54:53;;;;;;;;;;;16.60;99.90;;;;;;5072538;28;19915;-65
2021/07/16 00:57:20;;;;;;;;;;;16.60;99.90;;;;;;5072744;28;19915;-66
2021/07/16 00:59:47;;;;;;;;;;;16.70;99.90;;;;;;5072399;28;20325;-66
2021/07/16 01:02:14;;;;;;;;;;;16.70;99.90;;;;;;5104689;28;19965;-65
2021/07/16 01:04:40;;;;;;;;;;;16.70;99.90;;;;;;5072483;28;19908;-65
2021/07/16 01:07:07;;;;;;;;;;;16.70;99.90;;;;;;5072409;28;19938;-66
2021/07/16 01:09:34;;;;;;;;;;;16.70;99.90;;;;;;5091466;28;20006;-65
2021/07/16 01:12:02;;;;;;;;;;;17.10;99.90;;;;;;5092569;28;19920;-65
2021/07/16 01:14:32;;;;;;;;;;;17.10;99.90;;;;;;5092566;28;19915;-66
2021/07/16 01:16:59;;;;;;;;;;;17.50;99.50;;;;;;5092115;28;19914;-66
2021/07/16 01:19:31;;;;;;;;;;;17.50;99.90;;;;;;5090729;28;19955;-66
2021/07/16 01:21:59;;;;;;;;;;;17.70;99.60;;;;;;5092598;28;19908;-66
2021/07/16 01:24:26;;;;;;;;;;;18.20;98.70;;;;;;5092397;28;20251;-66
2021/07/16 01:26:53;;;;;;;;;;;18.00;98.80;;;;;;5091598;28;19984;-66
2021/07/16 01:29:21;;;;;;;;;;;18.10;97.40;;;;;;5091031;28;20283;-66
2021/07/16 01:31:48;;;;;;;;;;;18.00;98.40;;;;;;5092323;28;19916;-65
2021/07/16 01:34:16;;;;;;;;;;;17.90;98.30;;;;;;5092732;28;19954;-64
2021/07/16 01:36:43;;;;;;;;;;;17.80;98.40;;;;;;5092411;28;19915;-65
2021/07/16 01:39:09;;;;;;;;;;;17.70;98.60;;;;;;5092470;28;20324;-66
2021/07/16 01:41:36;;;;;;;;;;;17.60;99.00;;;;;;5090949;28;19960;-67
2021/07/16 01:44:04;;;;;;;;;;;17.70;98.20;;;;;;5104528;28;19999;-66
2021/07/16 01:46:30;;;;;;;;;;;17.50;98.20;;;;;;5112547;28;19943;-67
2021/07/16 01:48:57;;;;;;;;;;;17.40;98.70;;;;;;5113060;28;19908;-65
2021/07/16 01:51:24;;;;;;;;;;;17.50;98.00;;;;;;5113825;28;19923;-66
2021/07/16 01:53:50;;;;;;;;;;;17.50;98.10;;;;;;5114852;28;19911;-66
2021/07/16 01:56:20;;;;;;;;;;;17.50;97.80;;;;;;5110742;28;19912;-67
2021/07/16 01:58:47;;;;;;;;;;;17.40;97.40;;;;;;5112489;28;19914;-66
2021/07/16 02:01:14;;;;;;;;;;;17.40;97.30;;;;;;5112518;28;19933;-66
2021/07/16 02:03:45;;;;;;;;;;;17.50;98.20;;;;;;5115110;28;19915;-65
2021/07/16 02:06:13;;;;;;;;;;;17.70;98.20;;;;;;5116347;28;19908;-65
2021/07/16 02:08:40;;;;;;;;;;;17.70;97.60;;;;;;5116460;28;19916;-66
2021/07/16 02:11:07;;;;;;;;;;;17.80;96.50;;;;;;5113528;28;20023;-65
2021/07/16 02:13:34;;;;;;;;;;;17.60;96.40;;;;;;5116352;28;19992;-66
2021/07/16 02:16:01;;;;;;;;;;;17.50;95.90;;;;;;5080811;28;20034;-65
2021/07/16 02:18:28;;;;;;;;;;;17.40;96.60;;;;;;5115862;28;19915;-66
2021/07/16 02:20:55;;;;;;;;;;;17.50;96.30;;;;;;5116247;28;19908;-65
2021/07/16 02:23:27;;;;;;;;;;;17.40;97.30;;;;;;5116447;28;19912;-65
2021/07/16 02:25:54;;;;;;;;;;;17.30;96.90;;;;;;5114083;28;19955;-67
2021/07/16 02:28:22;;;;;;;;;;;17.30;97.70;;;;;;5116122;28;19964;-67
2021/07/16 02:30:49;;;;;;;;;;;17.20;97.90;;;;;;5116055;28;19953;-65
2021/07/16 02:33:16;;;;;;;;;;;17.00;99.90;;;;;;5116054;28;20354;-64
2021/07/16 02:35:44;;;;;;;;;;;16.70;99.90;;;;;;5115881;28;20002;-65
2021/07/16 02:38:12;;;;;;;;;;;16.30;99.90;;;;;;5117345;28;19915;-65
2021/07/16 02:40:38;;;;;;;;;;;15.90;99.90;;;;;;5113500;28;19912;-65
2021/07/16 02:43:05;;;;;;;;;;;15.50;99.90;;;;;;5115587;28;19916;-65
2021/07/16 02:45:32;;;;;;;;;;;15.10;99.90;;;;;;5115857;28;19908;-65
2021/07/16 02:47:59;;;;;;;;;;;14.80;99.90;;;;;;5115595;28;19908;-65
2021/07/16 02:50:31;;;;;;;;;;;14.60;99.90;;;;;;5115294;28;19915;-66
2021/07/16 02:52:57;;;;;;;;;;;14.40;99.90;;;;;;5115540;28;19980;-64
2021/07/16 02:55:24;;;;;;;;;;;14.20;99.90;;;;;;5113660;28;19916;-65
2021/07/16 02:57:51;;;;;;;;;;;13.90;99.90;;;;;;5114595;28;20294;-65
2021/07/16 03:00:20;;;;;;;;;;;13.80;99.90;;;;;;5093735;28;19908;-66
2021/07/16 03:02:48;;;;;;;;;;;13.80;99.90;;;;;;5094711;28;19908;-66
2021/07/16 03:05:16;;;;;;;;;;;13.90;99.90;;;;;;5094592;28;19908;-66
2021/07/16 03:07:43;;;;;;;;;;;14.10;99.90;;;;;;5094438;28;19915;-66
2021/07/16 03:10:14;;;;;;;;;;;14.00;99.90;;;;;;5102482;28;19916;-65
2021/07/16 03:12:41;;;;;;;;;;;14.10;99.90;;;;;;5114990;28;19916;-66
2021/07/16 03:15:11;;;;;;;;;;;14.00;99.90;;;;;;5113708;28;19915;-67
2021/07/16 03:17:39;;;;;;;;;;;14.00;99.90;;;;;;5114677;28;20044;-66
2021/07/16 03:20:07;;;;;;;;;;;14.10;99.90;;;;;;5115020;28;19908;-66
2021/07/16 03:22:34;;;;;;;;;;;14.10;99.90;;;;;;5115418;28;19914;-66
2021/07/16 03:25:00;;;;;;;;;;;14.10;99.90;;;;;;5111009;28;19985;-66
2021/07/16 03:27:27;;;;;;;;;;;14.30;99.90;;;;;;5115240;28;20278;-67
2021/07/16 03:29:54;;;;;;;;;;;14.40;99.90;;;;;;5114389;28;19914;-66
2021/07/16 03:32:20;;;;;;;;;;;14.50;99.90;;;;;;5114259;28;20419;-66
2021/07/16 03:34:47;;;;;;;;;;;14.60;99.90;;;;;;5114477;28;19908;-65
2021/07/16 03:37:14;;;;;;;;;;;14.80;99.90;;;;;;5114463;28;19915;-65
2021/07/16 03:39:41;;;;;;;;;;;14.90;99.90;;;;;;5112252;28;19947;-66
2021/07/16 03:42:08;;;;;;;;;;;15.20;99.90;;;;;;5114426;28;20286;-66
2021/07/16 03:44:35;;;;;;;;;;;15.20;99.70;;;;;;5114134;28;19951;-65
2021/07/16 03:47:02;;;;;;;;;;;15.40;99.20;;;;;;5114412;28;19919;-66
2021/07/16 03:49:29;;;;;;;;;;;15.30;98.30;;;;;;5114522;28;20308;-66
2021/07/16 03:51:58;;;;;;;;;;;15.20;98.40;;;;;;5114531;28;19916;-66
2021/07/16 03:54:24;;;;;;;;;;;15.20;99.80;;;;;;5112156;28;19912;-66
2021/07/16 03:56:52;;;;;;;;;;;15.20;99.60;;;;;;5114129;28;19991;-67
2021/07/16 03:59:19;;;;;;;;;;;15.20;99.40;;;;;;5114132;28;19908;-66
2021/07/16 04:01:48;;;;;;;;;;;15.30;99.90;;;;;;5113739;28;19950;-66
2021/07/16 04:04:15;;;;;;;;;;;15.40;98.40;;;;;;5113926;28;19932;-66
2021/07/16 04:06:50;;;;;;;;;;;15.50;97.60;;;;;;5114012;28;19907;-66
2021/07/16 04:09:34;;;;;;;;;;;15.40;98.60;;;;;;5111923;28;19995;-65
2021/07/16 04:12:17;;;;;;;;;;;15.50;98.00;;;;;;5113511;28;20010;-65
2021/07/16 04:14:45;;;;;;;;;;;15.60;97.00;;;;;;5113963;28;19912;-65
2021/07/16 04:17:16;;;;;;;;;;;15.70;96.30;;;;;;5113753;28;19907;-65
2021/07/16 04:19:43;;;;;;;;;;;15.70;97.00;;;;;;5113602;28;19912;-66
2021/07/16 04:22:10;;;;;;;;;;;15.90;95.90;;;;;;5113735;28;19912;-66
2021/07/16 04:24:38;;;;;;;;;;;15.80;96.90;;;;;;5111416;28;19916;-65
2021/07/16 04:27:05;;;;;;;;;;;15.90;96.20;;;;;;5113518;28;20354;-66
2021/07/16 04:29:33;;;;;;;;;;;15.90;95.80;;;;;;5094960;28;19908;-65
2021/07/16 04:32:00;;;;;;;;;;;16.00;96.20;;;;;;5113398;28;19916;-65
2021/07/16 04:34:30;;;;;;;;;;;16.00;94.40;;;;;;5113198;28;19993;-67
2021/07/16 04:36:57;;;;;;;;;;;15.90;94.30;;;;;;5113097;28;20096;-65
2021/07/16 04:39:24;;;;;;;;;;;15.90;94.70;;;;;;5111401;28;19943;-66
2021/07/16 04:41:51;;;;;;;;;;;16.00;93.60;;;;;;5113243;28;19990;-64
2021/07/16 04:44:18;;;;;;;;;;;16.00;91.70;;;;;;5113140;28;19920;-65
2021/07/16 04:46:44;;;;;;;;;;;16.10;92.00;;;;;;5112970;28;19912;-66
2021/07/16 04:49:11;;;;;;;;;;;16.10;93.10;;;;;;5113058;28;20247;-65
2021/07/16 04:51:38;;;;;;;;;;;16.10;90.60;;;;;;5112972;28;19912;-65
2021/07/16 04:54:05;;;;;;;;;;;16.10;92.20;;;;;;5092883;28;19912;-64
2021/07/16 04:56:32;;;;;;;;;;;16.10;91.10;;;;;;5113375;28;20335;-65
2021/07/16 04:58:59;;;;;;;;;;;16.10;90.10;;;;;;5114357;28;19908;-65
2021/07/16 05:01:26;;;;;;;;;;;16.10;91.50;;;;;;5114173;28;19907;-65
2021/07/16 05:03:53;;;;;;;;;;;16.10;91.10;;;;;;5113843;28;20002;-66
2021/07/16 05:06:20;;;;;;;;;;;16.20;90.80;;;;;;5112885;28;19908;-66
2021/07/16 05:08:48;;;;;;;;;;;16.30;89.80;;;;;;5111277;28;19965;-65
2021/07/16 05:11:15;;;;;;;;;;;16.30;89.00;;;;;;5112894;28;19981;-65
2021/07/16 05:13:42;;;;;;;;;;;16.20;89.80;;;;;;5112642;28;19939;-65
2021/07/16 05:16:13;;;;;;;;;;;16.30;90.80;;;;;;5113177;28;19915;-65
2021/07/16 05:18:40;;;;;;;;;;;16.30;90.30;;;;;;5112658;28;19908;-65
2021/07/16 05:21:07;;;;;;;;;;;16.30;89.50;;;;;;5112780;28;20004;-65
2021/07/16 05:23:34;;;;;;;;;;;16.40;86.60;;;;;;5110203;28;20393;-66
2021/07/16 05:26:01;;;;;;;;;;;16.40;83.80;;;;;;5112979;28;19951;-66
2021/07/16 05:28:28;;;;;;;;;;;16.40;83.90;;;;;;5111757;28;19973;-65
2021/07/16 05:30:55;;;;;;;;;;;16.40;85.10;;;;;;5112475;28;19911;-65
2021/07/16 05:33:22;;;;;;;;;;;16.40;82.90;;;;;;5112326;28;19918;-65
2021/07/16 05:35:49;;;;;;;;;;;16.30;83.70;;;;;;5112439;28;19908;-65
2021/07/16 05:38:17;;;;;;;;;;;16.20;84.60;;;;;;5107275;28;19912;-65
2021/07/16 05:40:44;;;;;;;;;;;16.20;84.30;;;;;;5116796;28;19972;-65
2021/07/16 05:43:12;;;;;;;;;;;16.20;84.90;;;;;;5116465;28;19916;-66
2021/07/16 05:45:40;;;;;;;;;;;16.20;84.90;;;;;;5086120;28;19980;-66
2021/07/16 05:48:10;;;;;;;;;;;16.20;84.00;;;;;;5075941;28;19912;-65
2021/07/16 05:50:37;;;;;;;;;;;16.20;81.50;;;;;;5075869;28;19916;-65
2021/07/16 05:53:04;;;;;;;;;;;16.20;81.50;;;;;;5093121;28;20381;-66
2021/07/16 05:55:31;;;;;;;;;;;16.20;82.60;;;;;;5116410;28;19908;-65
2021/07/16 05:57:58;;;;;;;;;;;16.20;82.80;;;;;;5116371;28;19939;-66
2021/07/16 06:00:24;;;;;;;;;;;16.10;81.00;;;;;;5116366;28;20268;-65
2021/07/16 06:02:51;;;;;;;;;;;16.10;83.20;;;;;;5116270;28;20362;-66
2021/07/16 06:05:18;;;;;;;;;;;16.10;82.10;;;;;;5116455;28;20002;-66
2021/07/16 06:07:45;;;;;;;;;;;16.00;83.80;;;;;;5089384;28;19925;-66
2021/07/16 06:10:11;;;;;;;;;;;15.90;85.20;;;;;;5075422;28;20017;-65
2021/07/16 06:12:38;;;;;;;;;;;15.90;86.00;;;;;;5074777;28;19963;-65
2021/07/16 06:15:06;;;;;;;;;;;15.90;84.40;;;;;;5075079;28;19909;-67
2021/07/16 06:17:32;;;;;;;;;;;15.80;87.20;;;;;;5074621;28;19909;-66
2021/07/16 06:19:59;;;;;;;;;;;15.80;84.20;;;;;;5075471;28;19919;-66
2021/07/16 06:22:26;;;;;;;;;;;15.80;84.70;;;;;;5075388;28;20375;-65
2021/07/16 06:24:53;;;;;;;;;;;15.80;86.10;;;;;;5075283;28;20394;-66
2021/07/16 06:27:20;;;;;;;;;;;15.70;85.40;;;;;;5075238;28;19994;-66
2021/07/16 06:29:47;;;;;;;;;;;15.70;85.40;;;;;;5075059;28;20020;-67
2021/07/16 06:32:13;;;;;;;;;;;15.60;87.10;;;;;;5074972;28;20022;-67
2021/07/16 06:34:40;;;;;;;;;;;15.60;86.80;;;;;;5075605;28;19912;-66
2021/07/16 06:37:07;;;;;;;;;;;15.60;88.20;;;;;;5075759;28;19912;-65
2021/07/16 06:39:34;;;;;;;;;;;15.60;87.40;;;;;;5074994;28;20023;-67
2021/07/16 06:42:00;;;;;;;;;;;15.50;89.00;;;;;;5074921;28;20375;-65
2021/07/16 06:44:27;;;;;;;;;;;15.50;88.20;;;;;;5074957;28;19987;-65
2021/07/16 06:46:55;;;;;;;;;;;15.40;88.80;;;;;;5074703;28;19908;-66
2021/07/16 06:49:26;;;;;;;;;;;15.40;90.20;;;;;;5074981;28;19912;-66
2021/07/16 06:51:54;;;;;;;;;;;15.30;90.20;;;;;;5074507;28;19916;-66
2021/07/16 06:54:27;;;;;;;;;;;15.20;91.00;;;;;;5074580;28;19909;-65
2021/07/16 06:56:54;;;;;;;;;;;15.20;90.90;;;;;;5074752;28;19909;-66
2021/07/16 06:59:21;;;;;;;;;;;15.10;90.80;;;;;;5073540;28;19948;-65
2021/07/16 07:01:48;;;;;;;;;;;15.10;90.70;;;;;;5074387;28;19908;-66
2021/07/16 07:04:15;;;;;;;;;;;15.00;91.70;;;;;;5074877;28;19936;-65
2021/07/16 07:06:42;;;;;;;;;;;15.00;92.20;;;;;;5074718;28;19908;-65
2021/07/16 07:09:09;;;;;;;;;;;15.00;92.00;;;;;;5074526;28;20032;-65
2021/07/16 07:11:36;;;;;;;;;;;14.90;91.60;;;;;;5106643;28;19920;-66
2021/07/16 07:14:03;;;;;;;;;;;14.90;92.60;;;;;;5074468;28;19909;-65
2021/07/16 07:16:30;;;;;;;;;;;14.80;93.00;;;;;;5073407;28;20036;-66
2021/07/16 07:18:57;;;;;;;;;;;14.80;92.50;;;;;;5074376;28;20267;-65
2021/07/16 07:21:23;;;;;;;;;;;14.70;93.00;;;;;;5074297;28;20011;-65
2021/07/16 07:23:50;;;;;;;;;;;14.70;93.30;;;;;;5074301;28;20284;-66
2021/07/16 07:26:17;;;;;;;;;;;14.60;93.00;;;;;;5074440;28;20282;-66
2021/07/16 07:28:43;;;;;;;;;;;14.60;93.20;;;;;;5089860;28;20351;-67
2021/07/16 07:31:10;;;;;;;;;;;14.50;93.50;;;;;;5074075;28;20402;-66
2021/07/16 07:33:37;;;;;;;;;;;14.50;94.40;;;;;;5073855;28;19908;-66
2021/07/16 07:36:04;;;;;;;;;;;14.50;94.60;;;;;;5073919;28;19909;-65
2021/07/16 07:38:35;;;;;;;;;;;14.40;93.90;;;;;;5074081;28;19912;-66
2021/07/16 07:41:02;;;;;;;;;;;14.30;93.60;;;;;;5071598;28;19962;-65
2021/07/16 07:43:29;;;;;;;;;;;14.30;95.30;;;;;;5071688;28;20344;-65
2021/07/16 07:45:56;;;;;;;;;;;14.40;94.30;;;;;;5071749;28;20003;-66
2021/07/16 07:48:22;;;;;;;;;;;14.30;93.90;;;;;;5071874;28;19935;-66
2021/07/16 07:50:49;;;;;;;;;;;14.30;94.10;;;;;;5071744;28;19995;-65
2021/07/16 07:53:16;;;;;;;;;;;14.30;94.40;;;;;;5071378;28;19989;-66
2021/07/16 07:55:42;;;;;;;;;;;14.30;94.80;;;;;;5071454;28;19916;-67
2021/07/16 07:58:10;;;;;;;;;;;14.20;94.30;;;;;;5071564;28;20531;-66
2021/07/16 08:00:37;;;;;;;;;;;14.20;94.20;;;;;;5070874;28;19915;-66
2021/07/16 08:03:03;;;;;;;;;;;14.20;94.50;;;;;;5071766;28;20270;-66
2021/07/16 08:05:30;;;;;;;;;;;14.10;95.00;;;;;;5071304;28;19908;-65
2021/07/16 08:07:57;;;;;;;;;;;14.10;95.10;;;;;;5071390;28;20002;-66
2021/07/16 08:10:24;;;;;;;;;;;14.10;95.00;;;;;;5071983;28;20335;-66
2021/07/16 08:12:50;;;;;;;;;;;14.10;95.10;;;;;;5072267;28;19924;-66
2021/07/16 08:15:17;;;;;;;;;;;14.10;95.70;;;;;;5071192;28;19919;-66
2021/07/16 08:17:44;;;;;;;;;;;14.00;95.20;;;;;;5070842;28;19919;-65
2021/07/16 08:20:11;;;;;;;;;;;14.10;96.00;;;;;;5071211;28;20458;-67
2021/07/16 08:22:39;;;;;;;;;;;14.10;95.50;;;;;;5071060;28;19912;-66
2021/07/16 08:25:07;;;;;;;;;;;14.10;95.30;;;;;;5103617;28;19913;-65
2021/07/16 08:27:33;;;;;;;;;;;14.10;94.90;;;;;;5070607;28;19954;-65
2021/07/16 08:30:00;;;;;;;;;;;14.10;94.70;;;;;;5071114;28;19958;-65
2021/07/16 08:32:27;;;;;;;;;;;14.10;94.40;;;;;;5070361;28;20434;-64
2021/07/16 08:34:53;;;;;;;;;;;14.10;95.00;;;;;;5070762;28;20828;-65
2021/07/16 08:37:20;;;;;;;;;;;14.10;93.90;;;;;;5070734;28;20029;-66
2021/07/16 08:39:47;;;;;;;;;;;14.10;94.10;;;;;;5103073;28;19909;-66
2021/07/16 08:42:14;;;;;;;;;;;14.10;94.30;;;;;;5070635;28;19912;-65
2021/07/16 08:44:44;;;;;;;;;;;14.10;94.10;;;;;;5070459;28;20012;-66
2021/07/16 08:47:11;;;;;;;;;;;14.00;94.90;;;;;;5070203;28;20513;-65
2021/07/16 08:49:41;;;;;;;;;;;14.00;94.90;;;;;;5070546;28;19913;-65
2021/07/16 08:52:08;;;;;;;;;;;14.00;94.30;;;;;;5070648;28;19956;-65
2021/07/16 08:54:45;;;;;;;;;;;13.90;95.10;;;;;;5070696;28;19962;-66
2021/07/16 08:57:13;;;;;;;;;;;13.90;95.40;;;;;;5070634;28;20367;-66
2021/07/16 08:59:40;;;;;;;;;;;13.90;94.80;;;;;;5070122;28;19912;-66
2021/07/16 09:02:07;;;;;;;;;;;13.90;94.80;;;;;;5070502;28;19962;-67
2021/07/16 09:04:41;;;;;;;;;;;13.90;94.90;;;;;;5070809;28;19908;-66
2021/07/16 09:07:08;;;;;;;;;;;13.90;95.70;;;;;;5072716;28;20421;-66
2021/07/16 09:09:39;;;;;;;;;;;13.90;95.60;;;;;;5072478;28;20381;-65
2021/07/16 09:12:09;;;;;;;;;;;13.80;96.00;;;;;;5071507;28;19970;-65
2021/07/16 09:14:36;;;;;;;;;;;13.90;95.70;;;;;;5072700;28;20256;-66
2021/07/16 09:17:05;;;;;;;;;;;13.80;95.20;;;;;;5072112;28;19909;-66
2021/07/16 09:19:33;;;;;;;;;;;13.90;96.30;;;;;;5072247;28;19912;-64
2021/07/16 09:22:01;;;;;;;;;;;13.80;95.70;;;;;;5072253;28;19908;-66
2021/07/16 09:24:28;;;;;;;;;;;13.80;95.20;;;;;;5072302;28;20366;-66
2021/07/16 09:26:54;;;;;;;;;;;13.80;96.70;;;;;;5072377;28;19909;-65
2021/07/16 09:29:33;;;;;;;;;;;13.90;95.70;;;;;;5072362;28;19913;-66
2021/07/16 09:32:04;;;;;;;;;;;13.80;95.80;;;;;;5072065;28;19930;-65
2021/07/16 09:34:31;;;;;;;;;;;13.80;95.50;;;;;;5072117;28;19919;-65
2021/07/16 09:37:06;;;;;;;;;;;13.80;95.80;;;;;;5072141;28;20019;-66
2021/07/16 09:39:34;;;;;;;;;;;13.80;95.90;;;;;;5072136;28;20365;-67
2021/07/16 09:42:01;;;;;;;;;;;13.80;95.90;;;;;;5072218;28;19978;-67
2021/07/16 09:44:29;;;;;;;;;;;13.90;95.40;;;;;;5072146;28;19920;-65
2021/07/16 09:47:22;;;;;;;;;;;13.80;96.00;;;;;;5072122;28;19915;-66
2021/07/16 09:50:04;;;;;;;;;;;13.80;95.40;;;;;;5069437;28;19958;-66
2021/07/16 09:52:31;;;;;;;;;;;13.80;95.70;;;;;;5072463;28;19920;-65
2021/07/16 09:55:08;;;;;;;;;;;13.80;96.00;;;;;;5072014;28;19909;-65
2021/07/16 09:57:42;;;;;;;;;;;13.80;95.40;;;;;;5072025;28;20748;-65
2021/07/16 10:00:18;;;;;;;;;;;13.90;95.90;;;;;;5072248;28;19965;-65
2021/07/16 10:02:46;;;;;;;;;;;13.80;95.20;;;;;;5072007;28;19944;-66
2021/07/16 10:05:13;;;;;;;;;;;13.80;95.00;;;;;;5072086;28;19908;-65
2021/07/16 10:07:43;;;;;;;;;;;13.80;95.40;;;;;;5071829;28;20656;-65
2021/07/16 10:10:21;;;;;;;;;;;13.80;95.50;;;;;;5072012;28;20384;-65
2021/07/16 10:12:48;;;;;;;;;;;13.80;96.00;;;;;;5072163;28;19916;-66
2021/07/16 10:15:17;;;;;;;;;;;13.80;95.40;;;;;;5071940;28;19908;-65
2021/07/16 10:17:44;;;;;;;;;;;13.80;95.10;;;;;;5071615;28;19913;-65
2021/07/16 10:20:12;;;;;;;;;;;13.80;96.30;;;;;;5087393;28;19916;-66
2021/07/16 10:22:39;;;;;;;;;;;13.70;95.70;;;;;;5071866;28;19915;-66
2021/07/16 10:25:07;;;;;;;;;;;13.70;96.30;;;;;;5107863;28;19915;-66
2021/07/16 10:27:33;;;;;;;;;;;13.70;95.60;;;;;;5075217;28;19962;-66
2021/07/16 10:30:07;;;;;;;;;;;13.70;95.50;;;;;;5075392;28;20413;-66
2021/07/16 10:32:47;;;;;;;;;;;13.60;96.30;;;;;;5075157;28;19916;-66
2021/07/16 10:35:14;;;;;;;;;;;13.60;95.90;;;;;;5075189;28;20416;-64
2021/07/16 10:37:41;;;;;;;;;;;13.60;96.10;;;;;;5074722;28;19912;-63
2021/07/16 10:40:08;;;;;;;;;;;13.60;95.40;;;;;;5075144;28;19947;-64
2021/07/16 10:42:36;;;;;;;;;;;13.60;96.00;;;;;;5074963;28;19931;-64
2021/07/16 10:45:04;;;;;;;;;;;13.60;95.80;;;;;;5074952;28;19916;-64
2021/07/16 10:47:33;;;;;;;;;;;13.60;96.10;;;;;;5073046;28;19989;-64
2021/07/16 10:50:01;;;;;;;;;;;13.60;95.50;;;;;;5073044;28;19916;-65
2021/07/16 10:52:46;;;;;;;;;;;13.50;94.90;;;;;;5073012;28;20057;-65
2021/07/16 10:55:14;;;;;;;;;;;13.60;95.00;;;;;;5072882;28;19912;-65
2021/07/16 10:57:44;;;;;;;;;;;13.50;95.10;;;;;;5072439;28;19913;-65
2021/07/16 11:00:14;;;;;;;;;;;13.50;95.20;;;;;;5072176;28;19916;-64
2021/07/16 11:02:42;;;;;;;;;;;13.50;94.80;;;;;;5072995;28;19912;-65
2021/07/16 11:05:27;;;;;;;;;;;13.50;94.90;;;;;;5072766;28;19909;-64
2021/07/16 11:07:53;;;;;;;;;;;13.50;94.90;;;;;;5072598;28;19999;-65
2021/07/16 11:10:38;;;;;;;;;;;13.50;94.20;;;;;;5072868;28;19999;-64
2021/07/16 11:13:23;;;;;;;;;;;13.40;94.90;;;;;;5072574;28;20034;-64
2021/07/16 11:15:50;;;;;;;;;;;13.50;94.10;;;;;;5072600;28;19908;-65
2021/07/16 11:18:28;;;;;;;;;;;13.50;94.10;;;;;;5072774;28;19917;-64
2021/07/16 11:20:56;;;;;;;;;;;13.50;94.00;;;;;;5072649;28;20321;-65
2021/07/16 11:23:40;;;;;;;;;;;13.50;93.10;;;;;;5072285;28;19912;-65
2021/07/16 11:26:16;;;;;;;;;;;13.50;93.20;;;;;;5072115;28;19912;-64
2021/07/16 11:28:43;;;;;;;;;;;13.50;92.40;;;;;;5072105;28;20355;-64
2021/07/16 11:31:10;;;;;;;;;;;13.60;92.40;;;;;;5071981;28;20367;-65
2021/07/16 11:33:37;;;;;;;;;;;13.50;92.50;;;;;;5071815;28;20268;-65
2021/07/16 11:36:04;;;;;;;;;;;13.50;92.10;;;;;;5071467;28;19909;-64
2021/07/16 11:38:30;;;;;;;;;;;13.50;92.10;;;;;;5072033;28;19999;-65
2021/07/16 11:41:07;;;;;;;;;;;13.50;91.00;;;;;;5071572;28;20454;-65
2021/07/16 11:43:34;;;;;;;;;;;13.50;91.50;;;;;;5071802;28;20405;-65
2021/07/16 11:46:00;;;;;;;;;;;13.50;91.20;;;;;;5071514;28;20010;-65
2021/07/16 11:48:27;;;;;;;;;;;13.50;91.00;;;;;;5071700;28;19912;-65
2021/07/16 11:50:54;;;;;;;;;;;13.50;91.30;;;;;;5071787;28;19909;-65
2021/07/16 11:53:23;;;;;;;;;;;13.50;93.10;;;;;;5071237;28;20373;-65
2021/07/16 11:55:50;;;;;;;;;;;13.50;91.60;;;;;;5071546;28;19974;-65
2021/07/16 11:58:19;;;;;;;;;;;13.50;91.30;;;;;;5071549;28;19912;-65
2021/07/16 12:00:45;;;;;;;;;;;13.50;91.50;;;;;;5069973;28;19916;-65
2021/07/16 12:03:20;;;;;;;;;;;13.50;90.90;;;;;;5071583;28;19996;-64
2021/07/16 12:05:51;;;;;;;;;;;13.50;92.80;;;;;;5070772;28;19946;-65
2021/07/16 12:08:18;;;;;;;;;;;13.50;91.90;;;;;;5071422;28;19939;-65
2021/07/16 12:10:45;;;;;;;;;;;13.50;91.40;;;;;;5103554;28;20397;-64
2021/07/16 12:13:12;;;;;;;;;;;13.50;91.40;;;;;;5103654;28;19920;-65
2021/07/16 12:15:39;;;;;;;;;;;13.50;91.10;;;;;;5069547;28;19912;-65
2021/07/16 12:18:08;;;;;;;;;;;13.50;91.10;;;;;;5071220;28;20287;-64
2021/07/16 12:20:44;;;;;;;;;;;13.60;92.00;;;;;;5070775;28;20007;-64
2021/07/16 12:23:13;;;;;;;;;;;13.60;91.20;;;;;;5071300;28;19935;-64
2021/07/16 12:25:40;;;;;;;;;;;13.60;90.70;;;;;;5070936;28;20130;-64
2021/07/16 12:28:10;;;;;;;;;;;13.60;92.20;;;;;;5071067;28;19975;-64
2021/07/16 12:30:37;;;;;;;;;;;13.60;92.10;;;;;;5070856;28;19912;-65
2021/07/16 12:33:05;;;;;;;;;;;13.60;90.90;;;;;;5103089;28;19920;-64
2021/07/16 12:35:32;;;;;;;;;;;13.60;91.50;;;;;;5070644;28;19917;-64
2021/07/16 12:38:03;;;;;;;;;;;13.60;91.10;;;;;;5070901;28;19908;-64
2021/07/16 12:40:30;;;;;;;;;;;13.50;91.60;;;;;;5070879;28;19913;-64
2021/07/16 12:43:15;;;;;;;;;;;13.60;91.60;;;;;;5070672;28;19916;-64
2021/07/16 12:45:45;;;;;;;;;;;13.50;91.00;;;;;;5070143;28;19912;-64
2021/07/16 12:48:29;;;;;;;;;;;13.50;90.70;;;;;;5070765;28;19908;-64
2021/07/16 12:51:16;;;;;;;;;;;13.50;91.50;;;;;;5070758;28;19909;-64
2021/07/16 12:53:44;;;;;;;;;;;13.50;91.20;;;;;;5070348;28;20396;-64
2021/07/16 12:56:18;;;;;;;;;;;13.40;91.50;;;;;;5070596;28;19920;-65
2021/07/16 12:58:44;;;;;;;;;;;13.50;91.60;;;;;;5070305;28;19993;-64
2021/07/16 13:01:12;;;;;;;;;;;13.40;91.60;;;;;;5070314;28;20769;-64
2021/07/16 13:03:42;;;;;;;;;;;13.30;91.30;;;;;;5070113;28;20430;-64
2021/07/16 13:06:35;;;;;;;;;;;13.40;91.80;;;;;;5070599;28;19909;-65
2021/07/16 13:09:12;;;;;;;;;;;13.20;92.80;;;;;;5068920;28;19915;-64
2021/07/16 13:11:39;;;;;;;;;;;13.30;92.60;;;;;;5069513;28;19969;-64
2021/07/16 13:14:06;;;;;;;;;;;13.30;92.40;;;;;;5070483;28;20434;-64
2021/07/16 13:16:33;;;;;;;;;;;13.30;92.90;;;;;;5085609;28;19908;-64
2021/07/16 13:19:00;;;;;;;;;;;13.30;93.00;;;;;;5070246;28;19912;-64
2021/07/16 13:21:27;;;;;;;;;;;13.20;93.00;;;;;;5070143;28;19909;-64
2021/07/16 13:23:54;;;;;;;;;;;13.20;93.60;;;;;;5069861;28;19908;-64
2021/07/16 13:26:32;;;;;;;;;;;13.20;93.80;;;;;;5070385;28;19909;-64
2021/07/16 13:28:59;;;;;;;;;;;13.20;93.90;;;;;;5070383;28;19919;-64
2021/07/16 13:31:26;;;;;;;;;;;13.10;94.40;;;;;;5070124;28;19916;-64
2021/07/16 13:33:53;;;;;;;;;;;13.10;94.40;;;;;;5070241;28;20329;-65
2021/07/16 13:36:20;;;;;;;;;;;13.10;94.70;;;;;;5070200;28;19912;-65
2021/07/16 13:38:46;;;;;;;;;;;13.10;95.00;;;;;;5069754;28;19919;-64
2021/07/16 13:41:13;;;;;;;;;;;13.10;94.60;;;;;;5070100;28;19999;-64
2021/07/16 13:43:40;;;;;;;;;;;13.10;94.60;;;;;;5102063;28;20009;-64
2021/07/16 13:46:07;;;;;;;;;;;13.10;94.90;;;;;;5070113;28;19909;-64
2021/07/16 13:48:34;;;;;;;;;;;13.10;95.20;;;;;;5070047;28;19909;-65
2021/07/16 13:51:01;;;;;;;;;;;13.10;95.70;;;;;;5069471;28;19917;-66
2021/07/16 13:53:27;;;;;;;;;;;13.10;95.20;;;;;;5070107;28;19916;-66
2021/07/16 13:55:54;;;;;;;;;;;13.00;95.90;;;;;;5069577;28;20477;-66
2021/07/16 13:58:21;;;;;;;;;;;13.10;95.80;;;;;;5070817;28;20034;-65
2021/07/16 14:00:47;;;;;;;;;;;13.00;95.90;;;;;;5073750;28;19943;-66
2021/07/16 14:03:14;;;;;;;;;;;13.00;96.40;;;;;;5073451;28;20574;-66
2021/07/16 14:05:41;;;;;;;;;;;12.90;97.00;;;;;;5073494;28;19917;-66
2021/07/16 14:08:07;;;;;;;;;;;12.80;96.70;;;;;;5073751;28;19915;-66
2021/07/16 14:10:34;;;;;;;;;;;12.90;97.00;;;;;;5073834;28;19955;-66
2021/07/16 14:13:01;;;;;;;;;;;12.90;97.10;;;;;;5073679;28;19925;-67
2021/07/16 14:15:27;;;;;;;;;;;12.90;97.30;;;;;;5072179;28;20530;-66
2021/07/16 14:17:54;;;;;;;;;;;12.90;97.30;;;;;;5073095;28;20333;-67
2021/07/16 14:20:21;;;;;;;;;;;12.80;97.50;;;;;;5073447;28;19963;-66
2021/07/16 14:22:47;;;;;;;;;;;12.80;97.90;;;;;;5073442;28;19920;-67